createdAt,value
2019-04-05T00:00:10.001Z,55.43
2019-04-05T00:02:40.145Z,52.70
2019-04-05T00:05:09.867Z,54.08
2019-04-05T00:07:39.595Z,55.08
2019-04-05T00:10:09.330Z,52.05
2019-04-05T00:12:38.855Z,57.65
2019-04-05T00:15:15.221Z,62.53
2019-04-05T00:17:39.814Z,55.80
2019-04-05T00:20:09.472Z,63.17
2019-04-05T00:22:39.104Z,54.23
2019-04-05T00:25:08.830Z,51.23
2019-04-05T00:27:38.456Z,52.40
2019-04-05T00:30:08.418Z,53.92
2019-04-05T00:32:39.049Z,52.17
2019-04-05T00:35:08.779Z,53.55
2019-04-05T00:37:38.406Z,55.12
2019-04-05T00:40:09.462Z,56.30
2019-04-05T00:42:39.850Z,56.73
2019-04-05T00:45:09.821Z,55.95
2019-04-05T00:47:39.472Z,53.95
2019-04-05T00:50:09.105Z,55.17
2019-04-05T00:52:38.725Z,56.65
2019-04-05T00:55:08.466Z,65.40
2019-04-05T00:57:39.119Z,78.45
2019-04-05T01:00:08.846Z,74.43
2019-04-05T01:02:38.573Z,94.70
2019-04-05T01:05:08.197Z,84.10
2019-04-05T01:07:37.893Z,106.13
2019-04-05T01:10:07.451Z,71.87
2019-04-05T01:12:37.049Z,75.70
2019-04-05T01:15:08.453Z,76.30
2019-04-05T01:17:38.421Z,71.87
2019-04-05T01:20:08.215Z,67.22
2019-04-05T01:22:37.834Z,70.35
2019-04-05T01:25:07.472Z,86.63
2019-04-05T01:27:37.614Z,83.60
2019-04-05T01:30:09.077Z,76.75
2019-04-05T01:32:38.723Z,74.82
2019-04-05T01:35:08.331Z,80.53
2019-04-05T01:37:38.157Z,66.05
2019-04-05T01:40:08.616Z,56.98
2019-04-05T01:45:09.208Z,56.68
2019-04-05T01:47:38.826Z,61.18
2019-04-05T01:50:08.653Z,75.52
2019-04-05T01:52:38.634Z,69.47
2019-04-05T01:55:08.522Z,59.35
2019-04-05T01:57:38.261Z,53.87
2019-04-05T02:00:12.388Z,48.70
2019-04-05T02:02:42.110Z,56.63
2019-04-05T02:05:11.748Z,61.63
2019-04-05T02:07:41.372Z,63.48
2019-04-05T02:10:11.002Z,67.25
2019-04-05T02:12:40.659Z,73.67
2019-04-05T02:15:10.357Z,80.85
2019-04-05T02:17:40.189Z,65.92
2019-04-05T02:20:09.831Z,73.57
2019-04-05T02:22:39.441Z,86.85
2019-04-05T02:25:09.089Z,98.17
2019-04-05T02:27:38.697Z,93.12
2019-04-05T02:30:08.436Z,87.92
2019-04-05T02:32:38.059Z,81.35
2019-04-05T02:35:07.694Z,73.42
2019-04-05T02:37:37.730Z,65.25
2019-04-05T02:40:12.610Z,70.20
2019-04-05T02:42:42.505Z,72.78
2019-04-05T02:45:12.048Z,71.22
2019-04-05T02:47:42.199Z,71.33
2019-04-05T02:50:11.796Z,67.72
2019-04-05T02:52:42.720Z,91.92
2019-04-05T02:55:12.588Z,91.90
2019-04-05T02:57:43.478Z,63.95
2019-04-05T03:00:13.069Z,77.65
2019-04-05T03:02:42.696Z,83.37
2019-04-05T03:05:12.436Z,75.35
2019-04-05T03:07:42.362Z,95.83
2019-04-05T03:10:23.911Z,90.03
2019-04-05T03:12:53.588Z,84.83
2019-04-05T03:15:23.212Z,104.27
2019-04-05T03:17:52.957Z,93.37
2019-04-05T03:20:22.589Z,85.10
2019-04-05T03:22:52.299Z,79.10
2019-04-05T03:25:21.952Z,70.65
2019-04-05T03:27:51.661Z,72.97
2019-04-05T03:30:21.313Z,64.10
2019-04-05T03:32:51.019Z,64.45
2019-04-05T03:35:20.640Z,59.77
2019-04-05T03:37:50.276Z,63.33
2019-04-05T03:40:19.910Z,58.87
2019-04-05T03:42:49.592Z,61.20
2019-04-05T03:45:19.061Z,64.07
2019-04-05T03:47:48.787Z,90.80
2019-04-05T03:50:18.511Z,97.37
2019-04-05T03:52:48.141Z,72.08
2019-04-05T03:55:17.770Z,86.15
2019-04-05T03:57:47.496Z,72.53
2019-04-05T04:00:17.233Z,68.52
2019-04-05T04:02:46.967Z,69.12
2019-04-05T04:05:16.586Z,64.60
2019-04-05T04:07:46.223Z,70.28
2019-04-05T04:10:17.667Z,69.12
2019-04-05T04:12:47.483Z,69.70
2019-04-05T04:15:17.248Z,72.35
2019-04-05T04:17:46.983Z,70.67
2019-04-05T04:20:42.590Z,70.75
2019-04-05T04:23:12.307Z,74.97
2019-04-05T04:25:43.122Z,68.37
2019-04-05T04:28:14.367Z,72.25
2019-04-05T04:30:43.965Z,69.87
2019-04-05T04:33:13.688Z,73.57
2019-04-05T04:35:43.429Z,77.27
2019-04-05T04:38:13.151Z,69.58
2019-04-05T04:40:42.775Z,66.05
2019-04-05T04:43:12.525Z,61.42
2019-04-05T04:45:42.236Z,66.97
2019-04-05T04:48:11.941Z,65.75
2019-04-05T04:50:41.489Z,65.25
2019-04-05T04:53:11.122Z,68.13
2019-04-05T04:55:40.853Z,68.60
2019-04-05T04:58:10.580Z,70.03
2019-04-05T05:00:40.310Z,67.25
2019-04-05T05:03:09.944Z,67.78
2019-04-05T05:05:39.568Z,66.53
2019-04-05T05:08:09.706Z,69.40
2019-04-05T05:10:39.333Z,65.70
2019-04-05T05:13:09.063Z,61.50
2019-04-05T05:15:38.687Z,62.73
2019-04-05T05:18:08.316Z,61.50
2019-04-05T05:20:38.006Z,57.50
2019-04-05T05:23:07.745Z,57.10
2019-04-05T05:25:37.515Z,56.83
2019-04-05T05:28:07.045Z,56.73
2019-04-05T05:30:36.560Z,58.10
2019-04-05T05:33:06.099Z,58.02
2019-04-05T05:35:35.815Z,57.60
2019-04-05T05:38:05.449Z,59.30
2019-04-05T05:40:35.727Z,58.68
2019-04-05T05:43:05.449Z,60.17
2019-04-05T05:45:35.453Z,61.20
2019-04-05T05:48:06.206Z,60.20
2019-04-05T05:50:36.140Z,59.38
2019-04-05T05:53:05.986Z,60.67
2019-04-05T05:55:36.673Z,61.08
2019-04-05T05:58:06.250Z,61.85
2019-04-05T06:00:35.882Z,61.40
2019-04-05T06:03:06.398Z,59.90
2019-04-05T06:08:05.688Z,60.28
2019-04-05T06:10:35.630Z,59.38
2019-04-05T06:13:07.160Z,63.40
2019-04-05T06:15:37.637Z,60.20
2019-04-05T06:18:07.470Z,63.23
2019-04-05T06:20:37.102Z,61.28
2019-04-05T06:23:06.928Z,56.27
2019-04-05T06:25:36.566Z,59.27
2019-04-05T06:28:06.286Z,59.13
2019-04-05T06:30:36.017Z,58.60
2019-04-05T06:33:05.756Z,61.63
2019-04-05T06:35:35.475Z,59.57
2019-04-05T06:38:05.115Z,57.37
2019-04-05T06:40:40.678Z,59.97
2019-04-05T06:43:06.984Z,58.35
2019-04-05T06:45:36.950Z,55.38
2019-04-05T06:48:18.403Z,56.88
2019-04-05T06:50:38.970Z,56.42
2019-04-05T06:53:08.704Z,59.38
2019-04-05T06:55:38.444Z,57.27
2019-04-05T06:58:10.340Z,54.85
2019-04-05T07:00:39.326Z,55.15
2019-04-05T07:03:09.048Z,54.93
2019-04-05T07:05:38.694Z,53.83
2019-04-05T07:08:09.350Z,52.20
2019-04-05T07:10:39.072Z,51.75
2019-04-05T07:13:09.117Z,52.48
2019-04-05T07:15:38.934Z,50.65
2019-04-05T07:18:08.666Z,52.50
2019-04-05T07:20:38.393Z,47.08
2019-04-05T07:23:08.034Z,45.17
2019-04-05T07:25:37.647Z,44.18
2019-04-05T07:28:07.489Z,42.35
2019-04-05T07:30:37.210Z,40.52
2019-04-05T07:33:06.768Z,41.23
2019-04-05T07:35:36.875Z,40.20
2019-04-05T07:38:09.536Z,39.10
2019-04-05T07:40:38.185Z,31.07
2019-04-05T07:43:07.802Z,19.45
2019-04-05T07:45:37.543Z,22.13
2019-04-05T07:48:07.374Z,12.50
2019-04-05T07:50:38.526Z,21.40
2019-04-05T07:53:08.260Z,15.98
2019-04-05T07:55:37.996Z,15.80
2019-04-05T07:58:08.379Z,15.08
2019-04-05T08:00:46.922Z,12.10
2019-04-05T08:03:16.789Z,9.68
2019-04-05T08:05:48.031Z,8.90
2019-04-05T08:08:20.947Z,11.68
2019-04-05T08:10:50.687Z,11.63
2019-04-05T08:13:20.423Z,9.53
2019-04-05T08:15:50.471Z,10.03
2019-04-05T08:20:49.099Z,7.22
2019-04-05T08:23:18.836Z,6.75
2019-04-05T08:25:48.568Z,10.70
2019-04-05T08:28:18.302Z,14.33
2019-04-05T08:30:48.018Z,13.10
2019-04-05T08:33:17.698Z,9.50
2019-04-05T08:35:47.389Z,8.63
2019-04-05T08:38:17.002Z,7.58
2019-04-05T08:40:46.736Z,8.85
2019-04-05T08:43:16.368Z,9.53
2019-04-05T08:45:46.103Z,9.78
2019-04-05T08:48:15.718Z,11.15
2019-04-05T08:50:45.451Z,9.30
2019-04-05T08:55:44.203Z,10.27
2019-04-05T09:00:42.936Z,11.20
2019-04-05T09:05:41.586Z,11.55
2019-04-05T09:08:11.212Z,12.25
2019-04-05T09:13:10.057Z,11.70
2019-04-05T09:15:39.704Z,10.45
2019-04-05T09:18:09.414Z,10.18
2019-04-05T09:20:39.151Z,10.78
2019-04-05T09:23:08.790Z,11.38
2019-04-05T09:25:38.715Z,12.53
2019-04-05T09:28:08.451Z,12.25
2019-04-05T09:30:38.073Z,12.50
2019-04-05T09:35:36.815Z,12.47
2019-04-05T09:38:06.546Z,11.88
2019-04-05T09:40:36.483Z,12.07
2019-04-05T09:43:06.216Z,12.70
2019-04-05T09:45:35.840Z,13.22
2019-04-05T09:48:05.596Z,13.32
2019-04-05T09:50:35.300Z,12.55
2019-04-05T09:53:06.565Z,13.13
2019-04-05T09:55:36.191Z,15.55
2019-04-05T09:58:09.897Z,13.13
2019-04-05T10:00:38.801Z,13.60
2019-04-05T10:03:08.755Z,14.33
2019-04-05T10:05:38.487Z,13.65
2019-04-05T10:08:08.068Z,12.85
2019-04-05T10:10:37.742Z,13.08
2019-04-05T10:13:09.833Z,12.82
2019-04-05T10:15:38.839Z,12.47
2019-04-05T10:18:08.374Z,11.83
2019-04-05T10:20:39.085Z,12.18
2019-04-05T10:23:08.945Z,11.48
2019-04-05T10:25:38.685Z,11.00
2019-04-05T10:28:08.415Z,11.40
2019-04-05T10:30:38.102Z,12.80
2019-04-05T10:33:07.784Z,12.03
2019-04-05T10:35:37.390Z,12.33
2019-04-05T10:38:07.031Z,13.08
2019-04-05T10:40:36.656Z,14.28
2019-04-05T10:43:06.391Z,12.82
2019-04-05T10:45:36.077Z,12.78
2019-04-05T10:48:05.843Z,12.37
2019-04-05T10:53:04.586Z,12.58
2019-04-05T10:58:03.534Z,12.45
2019-04-05T11:00:33.494Z,12.33
2019-04-05T11:03:03.302Z,12.47
2019-04-05T11:05:32.931Z,11.85
2019-04-05T11:10:32.005Z,14.18
2019-04-05T11:13:01.824Z,11.10
2019-04-05T11:15:31.757Z,10.75
2019-04-05T11:18:04.408Z,12.55
2019-04-05T11:20:33.153Z,13.55
2019-04-05T11:23:02.885Z,13.80
2019-04-05T11:25:32.608Z,12.05
2019-04-05T11:28:02.352Z,12.35
2019-04-05T11:30:42.916Z,11.30
2019-04-05T11:33:12.539Z,12.13
2019-04-05T11:35:42.379Z,12.25
2019-04-05T11:38:12.511Z,11.60
2019-04-05T11:40:42.187Z,12.28
2019-04-05T11:43:11.976Z,12.28
2019-04-05T11:45:41.603Z,12.58
2019-04-05T11:48:11.334Z,11.75
2019-04-05T11:50:41.063Z,12.63
2019-04-05T11:53:10.902Z,13.85
2019-04-05T11:55:40.733Z,12.13
2019-04-05T11:58:10.273Z,12.90
2019-04-05T12:03:12.173Z,12.85
2019-04-05T12:05:42.123Z,12.73
2019-04-05T12:08:11.734Z,12.60
2019-04-05T12:10:41.571Z,14.53
2019-04-05T12:13:11.301Z,12.90
2019-04-05T12:15:41.032Z,13.13
2019-04-05T12:18:10.766Z,13.60
2019-04-05T12:20:49.230Z,13.72
2019-04-05T12:23:11.758Z,14.50
2019-04-05T12:25:41.424Z,14.53
2019-04-05T12:28:11.115Z,13.55
2019-04-05T12:30:45.698Z,13.98
2019-04-05T12:33:14.962Z,13.22
2019-04-05T12:35:44.882Z,13.60
2019-04-05T12:38:27.970Z,13.43
2019-04-05T12:40:47.638Z,13.70
2019-04-05T12:43:17.200Z,13.70
2019-04-05T12:48:16.618Z,12.68
2019-04-05T12:50:46.255Z,12.85
2019-04-05T12:55:44.999Z,13.08
2019-04-05T12:58:14.600Z,16.30
2019-04-05T13:03:13.279Z,15.10
2019-04-05T13:05:42.921Z,13.88
2019-04-05T13:08:12.625Z,12.55
2019-04-05T13:13:11.172Z,14.03
2019-04-05T13:15:40.891Z,13.62
2019-04-05T13:18:11.547Z,13.45
2019-04-05T13:23:10.085Z,13.50
2019-04-05T13:25:40.967Z,13.53
2019-04-05T13:28:13.528Z,13.65
2019-04-05T13:30:43.880Z,15.13
2019-04-05T13:35:42.624Z,15.78
2019-04-05T13:40:41.369Z,15.83
2019-04-05T13:43:11.102Z,15.15
2019-04-05T13:45:40.725Z,24.50
2019-04-05T13:48:10.361Z,21.75
2019-04-05T13:50:41.640Z,16.12
2019-04-05T13:53:11.988Z,25.25
2019-04-05T13:55:41.792Z,30.08
2019-04-05T13:58:12.054Z,22.22
2019-04-05T14:00:41.864Z,16.90
2019-04-05T14:03:11.713Z,14.23
2019-04-05T14:05:41.443Z,15.55
2019-04-05T14:08:12.492Z,15.15
2019-04-05T14:13:11.748Z,16.82
2019-04-05T14:15:42.385Z,15.85
2019-04-05T14:18:15.346Z,15.65
2019-04-05T14:20:44.110Z,17.73
2019-04-05T14:23:13.952Z,16.55
2019-04-05T14:25:43.673Z,18.25
2019-04-05T14:28:13.507Z,17.25
2019-04-05T14:30:43.227Z,17.02
2019-04-05T14:33:14.090Z,18.12
2019-04-05T14:35:43.714Z,16.97
2019-04-05T14:38:13.805Z,17.40
2019-04-05T14:40:43.702Z,18.70
2019-04-05T14:43:14.975Z,16.93
2019-04-05T14:45:45.574Z,17.45
2019-04-05T14:50:44.457Z,20.50
2019-04-05T14:53:14.424Z,16.15
2019-04-05T14:55:44.232Z,25.25
2019-04-05T14:58:13.850Z,17.23
2019-04-05T15:00:44.383Z,16.35
2019-04-05T15:03:15.763Z,17.25
2019-04-05T15:08:15.426Z,17.77
2019-04-05T15:10:45.051Z,18.23
2019-04-05T15:13:14.791Z,22.13
2019-04-05T15:15:44.624Z,19.20
2019-04-05T15:18:14.276Z,22.10
2019-04-05T15:20:44.049Z,21.17
2019-04-05T15:23:14.514Z,21.57
2019-04-05T15:28:14.598Z,20.65
2019-04-05T15:30:44.636Z,19.67
2019-04-05T15:33:14.230Z,26.05
2019-04-05T15:35:43.890Z,21.13
2019-04-05T15:38:13.730Z,21.07
2019-04-05T15:40:44.672Z,22.95
2019-04-05T15:43:14.509Z,19.50
2019-04-05T15:45:45.498Z,19.23
2019-04-05T15:48:15.200Z,19.00
2019-04-05T15:50:44.821Z,19.00
2019-04-05T15:53:14.649Z,19.60
2019-04-05T15:55:44.264Z,19.32
2019-04-05T15:58:13.925Z,18.07
2019-04-05T16:00:46.607Z,18.37
2019-04-05T16:03:16.155Z,21.00
2019-04-05T16:05:45.874Z,21.45
2019-04-05T16:08:18.377Z,19.75
2019-04-05T16:10:49.547Z,21.80
2019-04-05T16:13:19.361Z,20.60
2019-04-05T16:15:48.987Z,28.25
2019-04-05T16:18:18.843Z,41.27
2019-04-05T16:20:48.651Z,43.35
2019-04-05T16:23:18.283Z,49.00
2019-04-05T16:25:48.003Z,44.10
2019-04-05T16:28:18.654Z,54.20
2019-04-05T16:30:48.274Z,64.93
2019-04-05T16:33:17.923Z,65.52
2019-04-05T16:35:47.679Z,66.05
2019-04-05T16:38:17.897Z,85.40
2019-04-05T16:40:47.627Z,79.80
2019-04-05T16:43:17.346Z,77.30
2019-04-05T16:45:47.190Z,72.70
2019-04-05T16:48:16.808Z,75.20
2019-04-05T16:50:46.541Z,72.05
2019-04-05T16:53:16.366Z,69.70
2019-04-05T16:55:46.099Z,63.92
2019-04-05T16:58:15.825Z,71.07
2019-04-05T17:00:45.575Z,80.37
2019-04-05T17:03:15.295Z,68.87
2019-04-05T17:05:45.458Z,64.85
2019-04-05T17:08:15.156Z,63.33
2019-04-05T17:10:44.887Z,60.40
2019-04-05T17:13:14.615Z,52.87
2019-04-05T17:15:44.350Z,53.60
2019-04-05T17:18:13.975Z,52.50
2019-04-05T17:20:43.719Z,58.23
2019-04-05T17:23:13.450Z,62.38
2019-04-05T17:25:43.300Z,57.33
2019-04-05T17:28:12.897Z,79.30
2019-04-05T17:30:42.625Z,70.25
2019-04-05T17:33:13.381Z,69.80
2019-04-05T17:35:43.219Z,74.33
2019-04-05T17:38:12.942Z,65.65
2019-04-05T17:40:42.671Z,58.83
2019-04-05T17:43:12.399Z,63.50
2019-04-05T17:45:42.196Z,63.95
2019-04-05T17:48:11.975Z,83.05
2019-04-05T17:50:41.693Z,86.40
2019-04-05T17:53:13.250Z,107.27
2019-04-05T17:55:43.110Z,108.37
2019-04-05T17:58:12.932Z,108.60
2019-04-05T18:00:43.021Z,138.55
2019-04-05T18:03:12.796Z,135.52
2019-04-05T18:05:42.367Z,125.30
2019-04-05T18:08:12.157Z,127.17
2019-04-05T18:10:42.107Z,122.53
2019-04-05T18:13:13.067Z,129.72
2019-04-05T18:15:52.381Z,158.82
2019-04-05T18:18:14.558Z,184.95
2019-04-05T18:20:44.218Z,165.22
2019-04-05T18:23:24.390Z,170.28
2019-04-05T18:25:45.299Z,210.15
2019-04-05T18:28:14.772Z,211.43
2019-04-05T18:30:44.417Z,193.07
2019-04-05T18:33:14.143Z,188.83
2019-04-05T18:35:43.901Z,213.03
2019-04-05T18:38:14.342Z,216.75
2019-04-05T18:40:44.124Z,131.47
2019-04-05T18:43:13.833Z,98.90
2019-04-05T18:45:43.663Z,140.13
2019-04-05T18:48:13.508Z,152.35
2019-04-05T18:50:43.075Z,142.82
2019-04-05T18:53:12.856Z,90.37
2019-04-05T18:55:42.561Z,122.83
2019-04-05T18:58:12.139Z,159.07
2019-04-05T19:00:41.808Z,185.50
2019-04-05T19:03:11.956Z,183.03
2019-04-05T19:05:43.219Z,172.05
2019-04-05T19:08:12.950Z,102.80
2019-04-05T19:10:42.688Z,103.27
2019-04-05T19:13:12.273Z,100.27
2019-04-05T19:15:41.980Z,113.92
2019-04-05T19:18:11.657Z,85.75
2019-04-05T19:20:41.596Z,119.77
2019-04-05T19:23:11.222Z,111.68
2019-04-05T19:25:40.981Z,150.87
2019-04-05T19:28:10.684Z,106.90
2019-04-05T19:50:53.697Z,106.70
2019-04-05T19:53:26.335Z,97.60
2019-04-05T19:55:57.969Z,57.90
2019-04-05T19:58:27.596Z,48.87
2019-04-05T20:00:59.171Z,53.35
2019-04-05T20:03:29.621Z,61.15
2019-04-05T20:05:59.448Z,53.07
2019-04-05T20:08:29.268Z,50.83
2019-04-05T20:10:59.006Z,38.87
2019-04-05T20:13:28.627Z,39.27
2019-04-05T20:15:58.260Z,42.23
2019-04-05T20:18:27.846Z,47.37
2019-04-05T20:20:57.513Z,48.30
2019-04-05T20:23:28.365Z,49.38
2019-04-05T20:25:58.102Z,47.88
2019-04-05T20:28:27.727Z,53.25
2019-04-05T20:30:57.357Z,53.70
2019-04-05T20:33:26.991Z,52.70
2019-04-05T20:35:56.619Z,55.63
2019-04-05T20:38:26.349Z,75.15
2019-04-05T20:40:55.976Z,80.33
2019-04-05T20:43:25.600Z,88.60
2019-04-05T20:45:56.759Z,80.40
2019-04-05T20:48:26.397Z,68.97
2019-04-05T20:50:56.117Z,53.83
2019-04-05T20:53:25.954Z,42.53
2019-04-05T20:55:55.680Z,44.27
2019-04-05T20:58:25.306Z,41.17
2019-04-05T21:00:54.941Z,45.85
2019-04-05T21:03:24.522Z,43.47
2019-04-05T21:05:55.626Z,43.70
2019-04-05T21:08:25.666Z,42.58
2019-04-05T21:10:55.395Z,42.70
2019-04-05T21:13:24.922Z,43.58
2019-04-05T21:15:55.677Z,46.05
2019-04-05T21:18:25.401Z,45.73
2019-04-05T21:20:55.228Z,50.30
2019-04-05T21:23:24.912Z,54.30
2019-04-05T21:25:54.594Z,60.50
2019-04-05T21:28:24.329Z,58.50
2019-04-05T21:30:54.089Z,55.05
2019-04-05T21:33:23.680Z,63.97
2019-04-05T21:35:53.515Z,62.40
2019-04-05T21:38:23.125Z,87.27
2019-04-05T21:40:52.775Z,81.80
2019-04-05T21:43:22.811Z,60.33
2019-04-05T21:45:52.842Z,58.25
2019-04-05T21:48:22.772Z,64.60
2019-04-05T21:50:52.713Z,74.15
2019-04-05T21:53:22.658Z,71.75
2019-04-05T21:55:52.684Z,74.00
2019-04-05T21:58:22.620Z,58.80
2019-04-05T22:00:54.305Z,56.75
2019-04-05T22:03:24.504Z,80.60
2019-04-05T22:05:54.472Z,47.78
2019-04-05T22:08:24.705Z,60.85
2019-04-05T22:10:55.460Z,61.98
2019-04-05T22:13:25.492Z,61.02
2019-04-05T22:15:55.423Z,67.03
2019-04-05T22:18:25.475Z,72.05
2019-04-05T22:20:55.500Z,83.47
2019-04-05T22:23:25.553Z,82.20
2019-04-05T22:25:55.683Z,73.20
2019-04-05T22:28:25.722Z,49.90
2019-04-05T22:30:57.283Z,36.03
2019-04-05T22:33:27.325Z,51.77
2019-04-05T22:35:57.256Z,53.25
2019-04-05T22:38:27.295Z,39.45
2019-04-05T22:40:57.329Z,47.53
2019-04-05T22:43:27.227Z,50.08
2019-04-05T22:45:57.208Z,52.30
2019-04-05T22:48:27.308Z,49.70
2019-04-05T22:50:57.337Z,46.02
2019-04-05T22:53:27.309Z,47.27
2019-04-05T22:55:57.244Z,36.45
2019-04-05T22:58:27.094Z,41.20
2019-04-05T23:00:57.115Z,41.63
2019-04-05T23:03:27.048Z,43.83
2019-04-05T23:05:57.089Z,43.25
2019-04-05T23:08:26.930Z,46.18
2019-04-05T23:10:56.957Z,44.83
2019-04-05T23:13:26.790Z,44.18
2019-04-05T23:15:56.683Z,43.13
2019-04-05T23:18:26.652Z,42.65
2019-04-05T23:20:56.582Z,36.25
2019-04-05T23:23:26.519Z,45.90
2019-04-05T23:25:56.461Z,42.67
2019-04-05T23:28:26.394Z,50.80
2019-04-05T23:30:56.323Z,44.40
2019-04-05T23:33:26.377Z,42.17
2019-04-05T23:35:56.302Z,35.90
2019-04-05T23:38:26.442Z,43.60
2019-04-05T23:40:56.434Z,44.40
2019-04-05T23:43:26.274Z,45.73
2019-04-05T23:45:56.243Z,48.83
2019-04-05T23:48:26.276Z,43.23
2019-04-05T23:50:56.234Z,41.90
2019-04-05T23:53:26.143Z,44.20
2019-04-05T23:55:56.184Z,43.58
2019-04-05T23:58:26.117Z,47.45
